sensor_id;sensor_type;location;lat;lon;timestamp;pressure;altitude;pressure_sealevel;temperature;humidity
25526;BME280;13424;48.424;11.258;2023-02-19T00:01:31;96021.69;;;12.95;67.73
25526;BME280;13424;48.424;11.258;2023-02-19T00:04:12;96032.19;;;12.97;67.66
25526;BME280;13424;48.424;11.258;2023-02-19T00:06:46;96021.94;;;12.94;67.88
25526;BME280;13424;48.424;11.258;2023-02-19T00:09:14;96020.31;;;13.09;67.45
25526;BME280;13424;48.424;11.258;2023-02-19T00:11:40;96018.63;;;13.03;67.48
25526;BME280;13424;48.424;11.258;2023-02-19T00:14:07;96020.00;;;12.72;67.85
25526;BME280;13424;48.424;11.258;2023-02-19T00:16:38;96018.69;;;12.92;67.34
25526;BME280;13424;48.424;11.258;2023-02-19T00:19:07;96018.03;;;12.84;67.99
25526;BME280;13424;48.424;11.258;2023-02-19T00:25:01;96011.16;;;12.72;68.12
25526;BME280;13424;48.424;11.258;2023-02-19T00:27:36;96007.44;;;12.90;67.48
25526;BME280;13424;48.424;11.258;2023-02-19T00:30:02;96006.38;;;12.91;67.43
25526;BME280;13424;48.424;11.258;2023-02-19T00:32:28;96007.91;;;12.70;68.34
25526;BME280;13424;48.424;11.258;2023-02-19T00:34:53;96005.56;;;12.90;67.57
25526;BME280;13424;48.424;11.258;2023-02-19T00:37:19;96007.50;;;12.95;67.73
25526;BME280;13424;48.424;11.258;2023-02-19T00:39:45;96005.63;;;12.95;67.83
25526;BME280;13424;48.424;11.258;2023-02-19T00:42:11;96000.50;;;13.10;67.48
25526;BME280;13424;48.424;11.258;2023-02-19T00:44:37;96000.84;;;12.97;67.33
25526;BME280;13424;48.424;11.258;2023-02-19T00:47:03;95998.59;;;12.72;68.23
25526;BME280;13424;48.424;11.258;2023-02-19T00:49:30;96009.75;;;13.03;67.65
25526;BME280;13424;48.424;11.258;2023-02-19T00:51:57;96008.25;;;12.90;67.73
25526;BME280;13424;48.424;11.258;2023-02-19T00:54:22;96006.84;;;13.04;67.70
25526;BME280;13424;48.424;11.258;2023-02-19T00:56:49;96010.75;;;12.97;67.94
25526;BME280;13424;48.424;11.258;2023-02-19T00:59:15;96007.91;;;12.70;68.59
25526;BME280;13424;48.424;11.258;2023-02-19T01:01:42;96012.69;;;12.84;68.38
25526;BME280;13424;48.424;11.258;2023-02-19T01:08:17;96004.56;;;12.63;68.72
25526;BME280;13424;48.424;11.258;2023-02-19T01:10:43;96003.94;;;12.89;68.37
25526;BME280;13424;48.424;11.258;2023-02-19T01:13:09;96002.16;;;12.78;68.84
25526;BME280;13424;48.424;11.258;2023-02-19T01:15:35;96001.19;;;12.84;68.67
25526;BME280;13424;48.424;11.258;2023-02-19T01:18:02;96006.88;;;12.88;68.45
25526;BME280;13424;48.424;11.258;2023-02-19T01:20:28;95998.66;;;12.94;68.22
25526;BME280;13424;48.424;11.258;2023-02-19T01:22:53;95993.53;;;13.09;68.09
25526;BME280;13424;48.424;11.258;2023-02-19T01:25:19;95992.41;;;13.05;68.09
25526;BME280;13424;48.424;11.258;2023-02-19T01:27:45;95981.06;;;12.98;68.26
25526;BME280;13424;48.424;11.258;2023-02-19T01:30:12;95986.72;;;13.02;68.23
25526;BME280;13424;48.424;11.258;2023-02-19T01:32:38;95979.13;;;12.77;68.92
25526;BME280;13424;48.424;11.258;2023-02-19T01:35:05;95980.41;;;12.91;68.52
25526;BME280;13424;48.424;11.258;2023-02-19T01:37:31;95978.78;;;12.90;68.60
25526;BME280;13424;48.424;11.258;2023-02-19T01:39:56;95986.09;;;13.11;68.06
25526;BME280;13424;48.424;11.258;2023-02-19T01:42:22;95975.03;;;13.08;68.54
25526;BME280;13424;48.424;11.258;2023-02-19T01:47:15;95967.34;;;12.95;68.33
25526;BME280;13424;48.424;11.258;2023-02-19T01:49:52;95963.44;;;13.02;68.44
25526;BME280;13424;48.424;11.258;2023-02-19T01:52:31;95961.41;;;12.93;68.73
25526;BME280;13424;48.424;11.258;2023-02-19T01:55:00;95954.31;;;12.81;69.09
25526;BME280;13424;48.424;11.258;2023-02-19T01:57:30;95959.63;;;12.98;68.55
25526;BME280;13424;48.424;11.258;2023-02-19T02:00:05;95947.97;;;12.71;68.92
25526;BME280;13424;48.424;11.258;2023-02-19T02:02:39;95953.00;;;12.84;69.01
25526;BME280;13424;48.424;11.258;2023-02-19T02:05:14;95955.59;;;12.79;69.19
25526;BME280;13424;48.424;11.258;2023-02-19T02:07:42;95951.28;;;12.78;69.27
25526;BME280;13424;48.424;11.258;2023-02-19T02:10:27;95943.56;;;12.98;68.81
25526;BME280;13424;48.424;11.258;2023-02-19T02:12:57;95944.63;;;12.97;68.64
25526;BME280;13424;48.424;11.258;2023-02-19T02:15:36;95942.31;;;12.67;69.55
25526;BME280;13424;48.424;11.258;2023-02-19T02:18:30;95938.22;;;12.98;69.09
25526;BME280;13424;48.424;11.258;2023-02-19T02:21:55;95935.81;;;12.80;69.02
25526;BME280;13424;48.424;11.258;2023-02-19T02:31:59;95913.94;;;12.66;69.97
25526;BME280;13424;48.424;11.258;2023-02-19T02:34:13;95911.13;;;12.78;69.67
25526;BME280;13424;48.424;11.258;2023-02-19T02:36:43;95914.72;;;12.67;70.00
25526;BME280;13424;48.424;11.258;2023-02-19T02:39:19;95910.69;;;12.64;69.70
25526;BME280;13424;48.424;11.258;2023-02-19T02:41:56;95903.22;;;12.66;70.44
25526;BME280;13424;48.424;11.258;2023-02-19T02:44:45;95894.94;;;12.68;70.80
25526;BME280;13424;48.424;11.258;2023-02-19T02:47:46;95881.09;;;12.54;70.78
25526;BME280;13424;48.424;11.258;2023-02-19T02:50:25;95881.00;;;12.66;70.77
25526;BME280;13424;48.424;11.258;2023-02-19T02:52:58;95879.56;;;12.41;70.98
25526;BME280;13424;48.424;11.258;2023-02-19T02:55:46;95887.59;;;12.41;70.91
25526;BME280;13424;48.424;11.258;2023-02-19T02:58:14;95883.78;;;12.37;71.63
25526;BME280;13424;48.424;11.258;2023-02-19T03:00:43;95877.69;;;12.42;70.68
25526;BME280;13424;48.424;11.258;2023-02-19T03:03:28;95865.13;;;12.42;70.86
25526;BME280;13424;48.424;11.258;2023-02-19T03:09:40;95864.06;;;12.43;70.75
25526;BME280;13424;48.424;11.258;2023-02-19T03:12:14;95864.97;;;12.49;70.91
25526;BME280;13424;48.424;11.258;2023-02-19T03:15:26;95867.88;;;12.14;71.81
25526;BME280;13424;48.424;11.258;2023-02-19T03:18:11;95862.78;;;12.12;72.38
25526;BME280;13424;48.424;11.258;2023-02-19T03:20:57;95862.22;;;11.93;72.97
25526;BME280;13424;48.424;11.258;2023-02-19T03:23:25;95866.66;;;12.21;71.78
25526;BME280;13424;48.424;11.258;2023-02-19T03:26:12;95860.28;;;11.77;73.46
25526;BME280;13424;48.424;11.258;2023-02-19T03:28:49;95859.47;;;12.22;73.40
25526;BME280;13424;48.424;11.258;2023-02-19T03:31:37;95851.69;;;12.04;74.49
25526;BME280;13424;48.424;11.258;2023-02-19T03:34:09;95850.94;;;11.91;74.84
25526;BME280;13424;48.424;11.258;2023-02-19T03:37:00;95834.72;;;11.53;75.97
25526;BME280;13424;48.424;11.258;2023-02-19T03:39:28;95863.31;;;11.69;76.16
25526;BME280;13424;48.424;11.258;2023-02-19T03:46:21;95854.00;;;11.55;77.08
25526;BME280;13424;48.424;11.258;2023-02-19T03:49:11;95848.53;;;11.61;76.61
25526;BME280;13424;48.424;11.258;2023-02-19T03:51:44;95843.41;;;11.60;76.66
25526;BME280;13424;48.424;11.258;2023-02-19T03:54:34;95841.03;;;11.46;77.00
25526;BME280;13424;48.424;11.258;2023-02-19T03:57:35;95846.03;;;11.43;77.35
25526;BME280;13424;48.424;11.258;2023-02-19T04:00:12;95841.03;;;11.46;77.00
25526;BME280;13424;48.424;11.258;2023-02-19T04:02:52;95854.59;;;11.45;77.37
25526;BME280;13424;48.424;11.258;2023-02-19T04:05:25;95847.75;;;11.49;77.42
25526;BME280;13424;48.424;11.258;2023-02-19T04:07:54;95853.03;;;11.61;76.72
25526;BME280;13424;48.424;11.258;2023-02-19T04:10:27;95848.66;;;11.26;78.14
25526;BME280;13424;48.424;11.258;2023-02-19T04:13:07;95848.44;;;11.44;77.67
25526;BME280;13424;48.424;11.258;2023-02-19T04:15:33;95843.50;;;11.08;78.29
25526;BME280;13424;48.424;11.258;2023-02-19T04:18:15;95840.47;;;11.04;78.82
25526;BME280;13424;48.424;11.258;2023-02-19T04:20:44;95845.22;;;11.42;77.73
25526;BME280;13424;48.424;11.258;2023-02-19T04:26:52;95847.41;;;11.17;78.88
25526;BME280;13424;48.424;11.258;2023-02-19T04:29:20;95853.78;;;11.16;78.72
25526;BME280;13424;48.424;11.258;2023-02-19T04:31:46;95854.22;;;11.25;78.46
25526;BME280;13424;48.424;11.258;2023-02-19T04:34:12;95847.22;;;11.35;77.92
25526;BME280;13424;48.424;11.258;2023-02-19T04:36:38;95863.91;;;11.14;78.57
25526;BME280;13424;48.424;11.258;2023-02-19T04:39:04;95867.16;;;11.16;78.76
25526;BME280;13424;48.424;11.258;2023-02-19T04:41:29;95866.09;;;11.17;78.39
25526;BME280;13424;48.424;11.258;2023-02-19T04:43:55;95867.22;;;11.21;78.00
25526;BME280;13424;48.424;11.258;2023-02-19T04:46:21;95871.31;;;11.12;78.39
25526;BME280;13424;48.424;11.258;2023-02-19T04:48:47;95882.47;;;11.09;78.74
25526;BME280;13424;48.424;11.258;2023-02-19T04:54:53;95873.84;;;11.18;78.33
25526;BME280;13424;48.424;11.258;2023-02-19T04:57:20;95868.66;;;11.12;78.61
25526;BME280;13424;48.424;11.258;2023-02-19T04:59:46;95867.03;;;11.11;78.58
25526;BME280;13424;48.424;11.258;2023-02-19T05:02:12;95867.88;;;11.00;78.76
25526;BME280;13424;48.424;11.258;2023-02-19T05:04:37;95874.66;;;11.19;78.31
25526;BME280;13424;48.424;11.258;2023-02-19T05:07:03;95876.16;;;10.75;79.37
25526;BME280;13424;48.424;11.258;2023-02-19T05:09:29;95878.00;;;10.86;79.24
25526;BME280;13424;48.424;11.258;2023-02-19T05:12:07;95875.59;;;11.13;78.38
25526;BME280;13424;48.424;11.258;2023-02-19T05:14:33;95882.72;;;10.96;78.52
25526;BME280;13424;48.424;11.258;2023-02-19T05:16:59;95878.88;;;11.15;78.02
25526;BME280;13424;48.424;11.258;2023-02-19T05:19:24;95883.22;;;10.93;79.01
25526;BME280;13424;48.424;11.258;2023-02-19T05:21:50;95873.66;;;10.97;79.03
25526;BME280;13424;48.424;11.258;2023-02-19T05:24:18;95872.97;;;10.89;78.78
25526;BME280;13424;48.424;11.258;2023-02-19T05:26:44;95879.59;;;10.87;79.42
25526;BME280;13424;48.424;11.258;2023-02-19T05:29:10;95875.97;;;11.05;78.57
25526;BME280;13424;48.424;11.258;2023-02-19T05:31:35;95884.94;;;10.99;78.47
25526;BME280;13424;48.424;11.258;2023-02-19T05:34:01;95891.78;;;10.95;78.99
25526;BME280;13424;48.424;11.258;2023-02-19T05:36:28;95899.22;;;10.93;78.52
25526;BME280;13424;48.424;11.258;2023-02-19T05:38:55;95902.94;;;10.92;78.41
25526;BME280;13424;48.424;11.258;2023-02-19T05:41:30;95904.47;;;11.28;77.74
25526;BME280;13424;48.424;11.258;2023-02-19T05:43:56;95905.25;;;11.00;78.52
25526;BME280;13424;48.424;11.258;2023-02-19T05:46:26;95909.28;;;11.14;78.03
25526;BME280;13424;48.424;11.258;2023-02-19T05:48:52;95898.97;;;10.94;78.23
25526;BME280;13424;48.424;11.258;2023-02-19T05:51:22;95902.97;;;11.20;77.82
25526;BME280;13424;48.424;11.258;2023-02-19T05:53:48;95909.16;;;11.09;77.79
25526;BME280;13424;48.424;11.258;2023-02-19T05:56:35;95911.28;;;11.07;78.25
25526;BME280;13424;48.424;11.258;2023-02-19T05:59:05;95917.88;;;11.16;77.96
25526;BME280;13424;48.424;11.258;2023-02-19T06:01:33;95917.41;;;11.07;78.08
25526;BME280;13424;48.424;11.258;2023-02-19T06:03:59;95923.56;;;11.08;77.84
25526;BME280;13424;48.424;11.258;2023-02-19T06:07:02;95934.69;;;11.05;78.44
25526;BME280;13424;48.424;11.258;2023-02-19T06:09:28;95931.03;;;10.82;78.62
25526;BME280;13424;48.424;11.258;2023-02-19T06:11:56;95935.66;;;10.75;79.19
25526;BME280;13424;48.424;11.258;2023-02-19T06:14:22;95935.41;;;10.88;78.37
25526;BME280;13424;48.424;11.258;2023-02-19T06:16:47;95934.00;;;10.74;78.97
25526;BME280;13424;48.424;11.258;2023-02-19T06:19:13;95927.50;;;10.58;79.17
25526;BME280;13424;48.424;11.258;2023-02-19T06:21:39;95951.66;;;10.99;78.70
25526;BME280;13424;48.424;11.258;2023-02-19T06:24:07;95945.53;;;10.75;80.05
25526;BME280;13424;48.424;11.258;2023-02-19T06:26:33;95948.81;;;10.23;82.36
25526;BME280;13424;48.424;11.258;2023-02-19T06:28:59;95959.22;;;10.67;81.09
25526;BME280;13424;48.424;11.258;2023-02-19T06:31:25;95958.72;;;10.46;82.49
25526;BME280;13424;48.424;11.258;2023-02-19T06:33:50;95965.31;;;10.44;82.94
25526;BME280;13424;48.424;11.258;2023-02-19T06:36:19;95971.22;;;10.46;83.33
25526;BME280;13424;48.424;11.258;2023-02-19T06:38:45;95974.38;;;10.43;83.20
25526;BME280;13424;48.424;11.258;2023-02-19T06:41:11;95976.56;;;10.46;83.32
25526;BME280;13424;48.424;11.258;2023-02-19T06:44:09;95981.47;;;10.72;82.90
25526;BME280;13424;48.424;11.258;2023-02-19T06:46:35;95986.13;;;10.88;82.34
25526;BME280;13424;48.424;11.258;2023-02-19T06:49:02;95993.16;;;10.48;84.39
25526;BME280;13424;48.424;11.258;2023-02-19T06:51:29;95996.72;;;10.42;84.68
25526;BME280;13424;48.424;11.258;2023-02-19T06:54:03;95998.31;;;10.01;86.70
25526;BME280;13424;48.424;11.258;2023-02-19T06:56:35;95998.94;;;10.45;84.96
25526;BME280;13424;48.424;11.258;2023-02-19T06:59:09;96013.09;;;10.57;84.66
25526;BME280;13424;48.424;11.258;2023-02-19T07:01:36;96004.63;;;10.18;86.95
25526;BME280;13424;48.424;11.258;2023-02-19T07:04:03;96017.50;;;10.21;87.35
25526;BME280;13424;48.424;11.258;2023-02-19T07:06:29;96031.50;;;10.35;86.67
25526;BME280;13424;48.424;11.258;2023-02-19T07:08:57;96039.13;;;10.31;87.26
25526;BME280;13424;48.424;11.258;2023-02-19T07:11:23;96048.41;;;10.29;87.70
25526;BME280;13424;48.424;11.258;2023-02-19T07:14:01;96045.63;;;10.05;88.76
25526;BME280;13424;48.424;11.258;2023-02-19T07:16:27;96048.31;;;10.17;88.80
25526;BME280;13424;48.424;11.258;2023-02-19T07:18:56;96053.66;;;10.36;88.09
25526;BME280;13424;48.424;11.258;2023-02-19T07:21:22;96043.66;;;10.31;87.93
25526;BME280;13424;48.424;11.258;2023-02-19T07:23:49;96056.03;;;10.07;89.36
25526;BME280;13424;48.424;11.258;2023-02-19T07:26:17;96054.16;;;9.96;88.93
25526;BME280;13424;48.424;11.258;2023-02-19T07:28:48;96067.16;;;10.04;88.95
25526;BME280;13424;48.424;11.258;2023-02-19T07:31:18;96070.88;;;9.85;89.99
25526;BME280;13424;48.424;11.258;2023-02-19T07:33:45;96073.66;;;10.08;90.08
25526;BME280;13424;48.424;11.258;2023-02-19T07:36:14;96080.53;;;10.16;89.26
25526;BME280;13424;48.424;11.258;2023-02-19T07:38:40;96074.25;;;10.10;89.76
25526;BME280;13424;48.424;11.258;2023-02-19T07:41:06;96072.91;;;10.38;88.68
25526;BME280;13424;48.424;11.258;2023-02-19T07:43:35;96093.50;;;10.30;88.89
25526;BME280;13424;48.424;11.258;2023-02-19T07:46:09;96086.22;;;10.38;89.06
25526;BME280;13424;48.424;11.258;2023-02-19T07:48:36;96094.06;;;10.32;89.72
25526;BME280;13424;48.424;11.258;2023-02-19T07:51:04;96097.50;;;10.03;90.73
25526;BME280;13424;48.424;11.258;2023-02-19T07:53:32;96101.09;;;10.45;89.73
25526;BME280;13424;48.424;11.258;2023-02-19T07:56:04;96105.44;;;10.28;89.74
25526;BME280;13424;48.424;11.258;2023-02-19T07:58:31;96103.63;;;10.70;88.08
25526;BME280;13424;48.424;11.258;2023-02-19T08:01:05;96104.16;;;10.30;89.84
25526;BME280;13424;48.424;11.258;2023-02-19T08:03:31;96111.59;;;10.28;89.90
25526;BME280;13424;48.424;11.258;2023-02-19T08:05:57;96116.31;;;10.26;90.10
25526;BME280;13424;48.424;11.258;2023-02-19T08:08:22;96117.34;;;10.07;89.82
25526;BME280;13424;48.424;11.258;2023-02-19T08:10:48;96115.88;;;9.74;89.60
25526;BME280;13424;48.424;11.258;2023-02-19T08:13:33;96116.28;;;9.35;89.17
25526;BME280;13424;48.424;11.258;2023-02-19T08:18:31;96124.47;;;9.08;89.86
25526;BME280;13424;48.424;11.258;2023-02-19T08:20:58;96117.97;;;9.04;89.50
25526;BME280;13424;48.424;11.258;2023-02-19T08:23:25;96124.41;;;8.90;90.33
25526;BME280;13424;48.424;11.258;2023-02-19T08:25:52;96140.94;;;8.67;90.36
25526;BME280;13424;48.424;11.258;2023-02-19T08:28:18;96132.16;;;8.60;89.55
25526;BME280;13424;48.424;11.258;2023-02-19T08:30:46;96139.50;;;8.96;88.76
25526;BME280;13424;48.424;11.258;2023-02-19T08:33:14;96144.50;;;8.86;88.27
25526;BME280;13424;48.424;11.258;2023-02-19T08:35:46;96149.91;;;8.73;88.53
25526;BME280;13424;48.424;11.258;2023-02-19T08:38:13;96133.09;;;8.79;88.84
25526;BME280;13424;48.424;11.258;2023-02-19T08:40:41;96151.22;;;8.88;88.14
25526;BME280;13424;48.424;11.258;2023-02-19T08:43:11;96140.91;;;8.74;88.28
25526;BME280;13424;48.424;11.258;2023-02-19T08:45:39;96149.72;;;9.24;87.22
25526;BME280;13424;48.424;11.258;2023-02-19T08:48:06;96152.00;;;9.20;86.97
25526;BME280;13424;48.424;11.258;2023-02-19T08:50:33;96134.94;;;9.53;85.87
25526;BME280;13424;48.424;11.258;2023-02-19T08:53:00;96144.25;;;9.62;85.37
25526;BME280;13424;48.424;11.258;2023-02-19T08:55:26;96136.13;;;9.57;85.52
25526;BME280;13424;48.424;11.258;2023-02-19T08:57:52;96145.75;;;9.76;84.79
25526;BME280;13424;48.424;11.258;2023-02-19T09:00:18;96146.31;;;10.03;85.48
25526;BME280;13424;48.424;11.258;2023-02-19T09:02:44;96159.69;;;10.33;85.36
25526;BME280;13424;48.424;11.258;2023-02-19T09:05:11;96159.78;;;10.75;85.04
25526;BME280;13424;48.424;11.258;2023-02-19T09:07:37;96177.34;;;10.83;84.57
25526;BME280;13424;48.424;11.258;2023-02-19T09:10:03;96175.25;;;10.85;83.93
25526;BME280;13424;48.424;11.258;2023-02-19T09:12:29;96165.59;;;11.26;82.99
25526;BME280;13424;48.424;11.258;2023-02-19T09:14:55;96170.97;;;11.61;82.36
25526;BME280;13424;48.424;11.258;2023-02-19T09:17:21;96164.44;;;11.68;80.69
25526;BME280;13424;48.424;11.258;2023-02-19T09:19:47;96170.50;;;11.52;79.74
25526;BME280;13424;48.424;11.258;2023-02-19T09:26:21;96180.34;;;11.28;80.73
25526;BME280;13424;48.424;11.258;2023-02-19T09:28:47;96173.31;;;11.04;80.33
25526;BME280;13424;48.424;11.258;2023-02-19T09:31:14;96172.78;;;11.25;79.50
25526;BME280;13424;48.424;11.258;2023-02-19T09:33:45;96192.22;;;10.72;79.38
25526;BME280;13424;48.424;11.258;2023-02-19T09:36:13;96182.56;;;11.43;77.06
25526;BME280;13424;48.424;11.258;2023-02-19T09:38:39;96185.34;;;11.25;77.69
25526;BME280;13424;48.424;11.258;2023-02-19T09:41:17;96197.78;;;11.42;78.55
25526;BME280;13424;48.424;11.258;2023-02-19T09:43:48;96195.31;;;10.87;78.88
25526;BME280;13424;48.424;11.258;2023-02-19T09:46:37;96206.53;;;11.08;77.87
25526;BME280;13424;48.424;11.258;2023-02-19T09:51:59;96219.41;;;11.76;77.47
25526;BME280;13424;48.424;11.258;2023-02-19T09:54:29;96212.50;;;11.87;76.39
25526;BME280;13424;48.424;11.258;2023-02-19T09:57:00;96214.31;;;11.74;76.21
25526;BME280;13424;48.424;11.258;2023-02-19T09:59:29;96215.56;;;11.49;76.52
25526;BME280;13424;48.424;11.258;2023-02-19T10:02:16;96220.28;;;10.63;78.35
25526;BME280;13424;48.424;11.258;2023-02-19T10:04:44;96227.16;;;11.01;78.90
25526;BME280;13424;48.424;11.258;2023-02-19T10:07:22;96223.94;;;10.80;77.76
25526;BME280;13424;48.424;11.258;2023-02-19T10:12:40;96222.53;;;11.50;75.30
25526;BME280;13424;48.424;11.258;2023-02-19T10:15:25;96226.91;;;11.32;74.05
25526;BME280;13424;48.424;11.258;2023-02-19T10:17:53;96229.63;;;11.56;75.88
25526;BME280;13424;48.424;11.258;2023-02-19T10:20:20;96236.88;;;11.90;74.66
25526;BME280;13424;48.424;11.258;2023-02-19T10:23:05;96238.41;;;11.86;74.79
25526;BME280;13424;48.424;11.258;2023-02-19T10:25:34;96240.66;;;11.59;74.04
25526;BME280;13424;48.424;11.258;2023-02-19T10:28:00;96230.53;;;11.50;73.35
25526;BME280;13424;48.424;11.258;2023-02-19T10:30:32;96252.75;;;10.90;74.12
25526;BME280;13424;48.424;11.258;2023-02-19T10:33:08;96242.38;;;11.42;74.63
25526;BME280;13424;48.424;11.258;2023-02-19T10:35:38;96241.03;;;11.63;74.50
25526;BME280;13424;48.424;11.258;2023-02-19T10:38:16;96234.53;;;11.70;72.58
25526;BME280;13424;48.424;11.258;2023-02-19T10:40:44;96223.78;;;11.35;74.88
25526;BME280;13424;48.424;11.258;2023-02-19T10:43:21;96231.06;;;11.70;74.38
25526;BME280;13424;48.424;11.258;2023-02-19T10:45:47;96233.06;;;11.98;74.41
25526;BME280;13424;48.424;11.258;2023-02-19T10:48:29;96229.16;;;11.59;73.91
25526;BME280;13424;48.424;11.258;2023-02-19T10:51:00;96225.63;;;11.88;72.70
25526;BME280;13424;48.424;11.258;2023-02-19T10:53:47;96231.72;;;11.54;72.91
25526;BME280;13424;48.424;11.258;2023-02-19T10:56:25;96228.63;;;11.15;73.30
25526;BME280;13424;48.424;11.258;2023-02-19T11:03:21;96220.97;;;10.88;77.43
25526;BME280;13424;48.424;11.258;2023-02-19T11:06:02;96229.59;;;11.02;78.46
25526;BME280;13424;48.424;11.258;2023-02-19T11:08:29;96232.50;;;11.01;78.01
25526;BME280;13424;48.424;11.258;2023-02-19T11:10:58;96230.59;;;10.59;80.35
25526;BME280;13424;48.424;11.258;2023-02-19T11:13:31;96226.72;;;10.55;81.08
25526;BME280;13424;48.424;11.258;2023-02-19T11:15:57;96225.84;;;10.43;81.45
25526;BME280;13424;48.424;11.258;2023-02-19T11:18:31;96232.44;;;10.59;82.40
25526;BME280;13424;48.424;11.258;2023-02-19T11:21:03;96241.88;;;10.73;83.26
25526;BME280;13424;48.424;11.258;2023-02-19T11:23:33;96234.59;;;10.99;83.27
25526;BME280;13424;48.424;11.258;2023-02-19T11:26:04;96231.06;;;11.28;83.54
25526;BME280;13424;48.424;11.258;2023-02-19T11:28:40;96229.88;;;11.12;80.55
25526;BME280;13424;48.424;11.258;2023-02-19T11:36:39;96230.78;;;11.60;78.30
25526;BME280;13424;48.424;11.258;2023-02-19T11:39:18;96232.66;;;11.71;77.18
25526;BME280;13424;48.424;11.258;2023-02-19T11:47:39;96217.09;;;11.56;75.97
25526;BME280;13424;48.424;11.258;2023-02-19T11:50:34;96217.47;;;11.18;76.08
25526;BME280;13424;48.424;11.258;2023-02-19T11:53:33;96217.84;;;11.33;74.31
25526;BME280;13424;48.424;11.258;2023-02-19T11:56:22;96215.44;;;11.43;74.51
25526;BME280;13424;48.424;11.258;2023-02-19T12:05:48;96214.88;;;11.77;73.04
25526;BME280;13424;48.424;11.258;2023-02-19T12:11:32;96215.25;;;12.27;72.27
25526;BME280;13424;48.424;11.258;2023-02-19T12:16:53;96214.44;;;11.80;72.69
25526;BME280;13424;48.424;11.258;2023-02-19T12:19:48;96223.16;;;12.22;71.76
25526;BME280;13424;48.424;11.258;2023-02-19T12:22:35;96217.69;;;12.28;72.14
25526;BME280;13424;48.424;11.258;2023-02-19T12:43:02;96229.72;;;12.66;69.26
25526;BME280;13424;48.424;11.258;2023-02-19T12:46:11;96237.69;;;12.78;70.70
25526;BME280;13424;48.424;11.258;2023-02-19T12:48:44;96240.38;;;12.02;69.31
25526;BME280;13424;48.424;11.258;2023-02-19T12:51:26;96249.56;;;12.82;69.38
25526;BME280;13424;48.424;11.258;2023-02-19T12:54:04;96246.84;;;12.53;69.43
25526;BME280;13424;48.424;11.258;2023-02-19T12:59:13;96246.88;;;12.82;67.85
25526;BME280;13424;48.424;11.258;2023-02-19T13:02:27;96254.63;;;12.55;67.40
25526;BME280;13424;48.424;11.258;2023-02-19T13:07:58;96242.84;;;12.68;67.58
25526;BME280;13424;48.424;11.258;2023-02-19T13:11:15;96239.72;;;12.99;66.41
25526;BME280;13424;48.424;11.258;2023-02-19T13:13:48;96244.53;;;12.45;66.36
25526;BME280;13424;48.424;11.258;2023-02-19T13:16:18;96243.91;;;12.95;66.45
25526;BME280;13424;48.424;11.258;2023-02-19T13:18:56;96230.97;;;12.64;66.41
25526;BME280;13424;48.424;11.258;2023-02-19T13:21:25;96232.53;;;12.48;64.59
25526;BME280;13424;48.424;11.258;2023-02-19T13:24:23;96217.56;;;12.35;64.58
25526;BME280;13424;48.424;11.258;2023-02-19T13:31:04;96201.69;;;12.85;64.31
25526;BME280;13424;48.424;11.258;2023-02-19T13:36:43;96211.44;;;12.11;64.07
25526;BME280;13424;48.424;11.258;2023-02-19T13:39:12;96228.78;;;12.09;64.30
25526;BME280;13424;48.424;11.258;2023-02-19T13:41:50;96233.38;;;12.37;64.14
25526;BME280;13424;48.424;11.258;2023-02-19T13:44:29;96227.94;;;12.08;64.23
25526;BME280;13424;48.424;11.258;2023-02-19T13:46:57;96229.91;;;12.13;64.57
25526;BME280;13424;48.424;11.258;2023-02-19T13:52:32;96219.84;;;12.55;62.51
25526;BME280;13424;48.424;11.258;2023-02-19T14:01:02;96228.44;;;12.97;63.33
25526;BME280;13424;48.424;11.258;2023-02-19T14:03:54;96249.75;;;12.92;64.45
25526;BME280;13424;48.424;11.258;2023-02-19T14:06:20;96248.63;;;12.88;63.83
25526;BME280;13424;48.424;11.258;2023-02-19T14:08:56;96244.31;;;12.00;66.09
25526;BME280;13424;48.424;11.258;2023-02-19T14:14:36;96231.75;;;11.77;67.39
25526;BME280;13424;48.424;11.258;2023-02-19T14:28:22;96257.19;;;10.96;74.90
25526;BME280;13424;48.424;11.258;2023-02-19T14:30:57;96247.41;;;10.90;73.48
25526;BME280;13424;48.424;11.258;2023-02-19T14:33:32;96249.09;;;11.03;73.05
25526;BME280;13424;48.424;11.258;2023-02-19T14:37:05;96248.44;;;11.49;70.83
25526;BME280;13424;48.424;11.258;2023-02-19T14:39:32;96248.94;;;11.28;70.01
25526;BME280;13424;48.424;11.258;2023-02-19T14:42:14;96249.38;;;11.55;70.00
25526;BME280;13424;48.424;11.258;2023-02-19T14:45:04;96254.50;;;11.14;70.25
25526;BME280;13424;48.424;11.258;2023-02-19T14:47:30;96258.97;;;11.32;70.57
25526;BME280;13424;48.424;11.258;2023-02-19T14:50:15;96256.41;;;11.37;70.09
25526;BME280;13424;48.424;11.258;2023-02-19T14:52:49;96246.38;;;11.63;69.14
25526;BME280;13424;48.424;11.258;2023-02-19T14:55:36;96254.03;;;11.59;70.03
25526;BME280;13424;48.424;11.258;2023-02-19T14:58:18;96259.13;;;11.61;68.41
25526;BME280;13424;48.424;11.258;2023-02-19T15:00:45;96259.19;;;12.08;68.49
25526;BME280;13424;48.424;11.258;2023-02-19T15:03:38;96272.91;;;11.99;69.31
25526;BME280;13424;48.424;11.258;2023-02-19T15:06:11;96287.50;;;11.62;70.15
25526;BME280;13424;48.424;11.258;2023-02-19T15:08:45;96292.19;;;11.78;69.11
25526;BME280;13424;48.424;11.258;2023-02-19T15:11:21;96290.81;;;12.46;67.77
25526;BME280;13424;48.424;11.258;2023-02-19T15:14:00;96289.44;;;11.96;67.99
25526;BME280;13424;48.424;11.258;2023-02-19T15:20:35;96299.41;;;11.89;68.98
25526;BME280;13424;48.424;11.258;2023-02-19T15:23:03;96304.91;;;12.06;66.91
25526;BME280;13424;48.424;11.258;2023-02-19T15:25:33;96292.38;;;11.65;66.58
25526;BME280;13424;48.424;11.258;2023-02-19T15:33:25;96296.59;;;11.31;67.38
25526;BME280;13424;48.424;11.258;2023-02-19T15:35:56;96297.41;;;11.13;66.60